sensor_id;sensor_type;location;lat;lon;timestamp;P1;durP1;ratioP1;P2;durP2;ratioP2
34828;SDS011;21042;47.620;12.188;2022-12-17T00:00:42;59.60;;;22.48;;
34828;SDS011;21042;47.620;12.188;2022-12-17T00:03:38;51.95;;;20.38;;
34828;SDS011;21042;47.620;12.188;2022-12-17T00:06:24;55.30;;;21.10;;
34828;SDS011;21042;47.620;12.188;2022-12-17T00:09:09;58.58;;;22.40;;
34828;SDS011;21042;47.620;12.188;2022-12-17T00:11:54;56.95;;;21.30;;
34828;SDS011;21042;47.620;12.188;2022-12-17T00:14:40;57.90;;;23.23;;
34828;SDS011;21042;47.620;12.188;2022-12-17T00:17:25;53.47;;;21.02;;
34828;SDS011;21042;47.620;12.188;2022-12-17T00:20:21;57.17;;;21.77;;
34828;SDS011;21042;47.620;12.188;2022-12-17T00:23:07;57.05;;;21.77;;
34828;SDS011;21042;47.620;12.188;2022-12-17T00:25:53;57.35;;;20.13;;
34828;SDS011;21042;47.620;12.188;2022-12-17T00:28:40;54.10;;;21.38;;
34828;SDS011;21042;47.620;12.188;2022-12-17T00:31:27;42.47;;;15.90;;
34828;SDS011;21042;47.620;12.188;2022-12-17T00:34:13;56.38;;;21.30;;
34828;SDS011;21042;47.620;12.188;2022-12-17T00:36:59;55.22;;;21.77;;
34828;SDS011;21042;47.620;12.188;2022-12-17T00:39:44;59.22;;;21.02;;
34828;SDS011;21042;47.620;12.188;2022-12-17T00:42:30;58.65;;;21.13;;
34828;SDS011;21042;47.620;12.188;2022-12-17T00:45:15;58.28;;;22.10;;
34828;SDS011;21042;47.620;12.188;2022-12-17T00:48:00;56.53;;;21.30;;
34828;SDS011;21042;47.620;12.188;2022-12-17T00:50:46;59.08;;;21.67;;
34828;SDS011;21042;47.620;12.188;2022-12-17T00:53:31;58.60;;;21.92;;
34828;SDS011;21042;47.620;12.188;2022-12-17T00:56:17;50.67;;;22.00;;
34828;SDS011;21042;47.620;12.188;2022-12-17T00:59:04;54.67;;;20.80;;
34828;SDS011;21042;47.620;12.188;2022-12-17T01:01:49;51.60;;;20.92;;
34828;SDS011;21042;47.620;12.188;2022-12-17T01:04:35;53.65;;;19.13;;
34828;SDS011;21042;47.620;12.188;2022-12-17T01:07:22;51.53;;;20.88;;
34828;SDS011;21042;47.620;12.188;2022-12-17T01:10:07;51.35;;;20.23;;
34828;SDS011;21042;47.620;12.188;2022-12-17T01:12:52;56.50;;;20.77;;
34828;SDS011;21042;47.620;12.188;2022-12-17T01:15:38;50.70;;;20.75;;
34828;SDS011;21042;47.620;12.188;2022-12-17T01:18:23;53.10;;;20.52;;
34828;SDS011;21042;47.620;12.188;2022-12-17T01:21:08;49.38;;;18.77;;
34828;SDS011;21042;47.620;12.188;2022-12-17T01:23:53;57.53;;;19.65;;
34828;SDS011;21042;47.620;12.188;2022-12-17T01:26:39;51.75;;;20.70;;
34828;SDS011;21042;47.620;12.188;2022-12-17T01:29:24;50.17;;;19.08;;
34828;SDS011;21042;47.620;12.188;2022-12-17T01:32:17;51.17;;;18.90;;
34828;SDS011;21042;47.620;12.188;2022-12-17T01:35:02;46.05;;;18.95;;
34828;SDS011;21042;47.620;12.188;2022-12-17T01:37:48;49.30;;;18.95;;
34828;SDS011;21042;47.620;12.188;2022-12-17T01:40:34;56.53;;;20.40;;
34828;SDS011;21042;47.620;12.188;2022-12-17T01:43:29;49.22;;;19.10;;
34828;SDS011;21042;47.620;12.188;2022-12-17T01:46:18;52.05;;;20.70;;
34828;SDS011;21042;47.620;12.188;2022-12-17T01:49:05;51.45;;;19.38;;
34828;SDS011;21042;47.620;12.188;2022-12-17T01:51:52;50.08;;;19.35;;
34828;SDS011;21042;47.620;12.188;2022-12-17T01:54:37;43.88;;;17.35;;
34828;SDS011;21042;47.620;12.188;2022-12-17T01:57:24;49.58;;;18.08;;
34828;SDS011;21042;47.620;12.188;2022-12-17T02:00:12;51.45;;;18.92;;
34828;SDS011;21042;47.620;12.188;2022-12-17T02:03:01;57.33;;;19.02;;
34828;SDS011;21042;47.620;12.188;2022-12-17T02:09:12;47.25;;;18.83;;
34828;SDS011;21042;47.620;12.188;2022-12-17T02:12:18;49.43;;;18.10;;
34828;SDS011;21042;47.620;12.188;2022-12-17T02:15:27;51.72;;;19.33;;
34828;SDS011;21042;47.620;12.188;2022-12-17T02:18:19;50.47;;;19.85;;
34828;SDS011;21042;47.620;12.188;2022-12-17T02:21:09;50.30;;;18.15;;
34828;SDS011;21042;47.620;12.188;2022-12-17T02:27:01;50.08;;;18.10;;
34828;SDS011;21042;47.620;12.188;2022-12-17T02:29:52;44.80;;;18.65;;
34828;SDS011;21042;47.620;12.188;2022-12-17T02:32:40;45.00;;;17.58;;
34828;SDS011;21042;47.620;12.188;2022-12-17T02:35:30;48.50;;;18.35;;
34828;SDS011;21042;47.620;12.188;2022-12-17T02:38:22;54.33;;;19.25;;
34828;SDS011;21042;47.620;12.188;2022-12-17T02:41:11;55.45;;;19.27;;
34828;SDS011;21042;47.620;12.188;2022-12-17T02:44:00;49.78;;;18.75;;
34828;SDS011;21042;47.620;12.188;2022-12-17T02:46:48;55.45;;;19.02;;
34828;SDS011;21042;47.620;12.188;2022-12-17T02:49:35;47.13;;;18.37;;
34828;SDS011;21042;47.620;12.188;2022-12-17T02:55:22;50.20;;;17.55;;
34828;SDS011;21042;47.620;12.188;2022-12-17T02:58:07;48.70;;;17.40;;
34828;SDS011;21042;47.620;12.188;2022-12-17T03:00:53;43.55;;;17.00;;
34828;SDS011;21042;47.620;12.188;2022-12-17T03:03:48;40.97;;;16.13;;
34828;SDS011;21042;47.620;12.188;2022-12-17T03:06:34;37.08;;;14.82;;
34828;SDS011;21042;47.620;12.188;2022-12-17T03:09:19;44.13;;;16.08;;
34828;SDS011;21042;47.620;12.188;2022-12-17T03:12:05;42.30;;;15.52;;
34828;SDS011;21042;47.620;12.188;2022-12-17T03:14:50;43.33;;;15.77;;
34828;SDS011;21042;47.620;12.188;2022-12-17T03:17:35;44.70;;;15.60;;
34828;SDS011;21042;47.620;12.188;2022-12-17T03:20:21;43.65;;;16.83;;
34828;SDS011;21042;47.620;12.188;2022-12-17T03:23:08;45.83;;;16.52;;
34828;SDS011;21042;47.620;12.188;2022-12-17T03:25:58;39.72;;;15.73;;
34828;SDS011;21042;47.620;12.188;2022-12-17T03:32:06;46.63;;;17.27;;
34828;SDS011;21042;47.620;12.188;2022-12-17T03:34:51;42.47;;;16.77;;
34828;SDS011;21042;47.620;12.188;2022-12-17T03:37:37;42.92;;;16.00;;
34828;SDS011;21042;47.620;12.188;2022-12-17T03:40:22;45.60;;;16.08;;
34828;SDS011;21042;47.620;12.188;2022-12-17T03:43:08;44.97;;;16.38;;
34828;SDS011;21042;47.620;12.188;2022-12-17T03:45:55;45.58;;;15.98;;
34828;SDS011;21042;47.620;12.188;2022-12-17T03:48:41;43.22;;;16.20;;
34828;SDS011;21042;47.620;12.188;2022-12-17T03:51:26;47.17;;;15.93;;
34828;SDS011;21042;47.620;12.188;2022-12-17T03:54:11;44.47;;;16.77;;
34828;SDS011;21042;47.620;12.188;2022-12-17T03:56:57;50.13;;;16.50;;
34828;SDS011;21042;47.620;12.188;2022-12-17T03:59:42;41.78;;;16.38;;
34828;SDS011;21042;47.620;12.188;2022-12-17T04:02:37;47.95;;;16.33;;
34828;SDS011;21042;47.620;12.188;2022-12-17T04:05:22;54.15;;;18.55;;
34828;SDS011;21042;47.620;12.188;2022-12-17T04:08:08;53.20;;;18.75;;
34828;SDS011;21042;47.620;12.188;2022-12-17T04:10:53;47.05;;;18.08;;
34828;SDS011;21042;47.620;12.188;2022-12-17T04:13:39;49.60;;;17.85;;
34828;SDS011;21042;47.620;12.188;2022-12-17T04:16:24;51.63;;;18.30;;
34828;SDS011;21042;47.620;12.188;2022-12-17T04:19:09;51.05;;;19.50;;
34828;SDS011;21042;47.620;12.188;2022-12-17T04:21:55;46.42;;;17.63;;
34828;SDS011;21042;47.620;12.188;2022-12-17T04:24:40;49.15;;;18.50;;
34828;SDS011;21042;47.620;12.188;2022-12-17T04:27:26;46.50;;;17.60;;
34828;SDS011;21042;47.620;12.188;2022-12-17T04:30:11;47.20;;;17.23;;
34828;SDS011;21042;47.620;12.188;2022-12-17T04:32:57;61.25;;;18.90;;
34828;SDS011;21042;47.620;12.188;2022-12-17T04:35:42;58.63;;;19.13;;
34828;SDS011;21042;47.620;12.188;2022-12-17T04:38:28;52.35;;;18.83;;
34828;SDS011;21042;47.620;12.188;2022-12-17T04:41:13;45.47;;;18.20;;
34828;SDS011;21042;47.620;12.188;2022-12-17T04:43:59;58.17;;;20.13;;
34828;SDS011;21042;47.620;12.188;2022-12-17T04:46:44;65.20;;;20.75;;
34828;SDS011;21042;47.620;12.188;2022-12-17T04:49:29;54.03;;;19.95;;
34828;SDS011;21042;47.620;12.188;2022-12-17T04:52:15;55.92;;;20.08;;
34828;SDS011;21042;47.620;12.188;2022-12-17T04:55:00;56.53;;;20.88;;
34828;SDS011;21042;47.620;12.188;2022-12-17T04:58:03;55.33;;;19.48;;
34828;SDS011;21042;47.620;12.188;2022-12-17T05:00:50;53.88;;;18.77;;
34828;SDS011;21042;47.620;12.188;2022-12-17T05:03:36;66.07;;;21.27;;
34828;SDS011;21042;47.620;12.188;2022-12-17T05:06:23;63.15;;;20.27;;
34828;SDS011;21042;47.620;12.188;2022-12-17T05:09:09;61.42;;;21.13;;
34828;SDS011;21042;47.620;12.188;2022-12-17T05:11:54;61.87;;;21.10;;
34828;SDS011;21042;47.620;12.188;2022-12-17T05:14:40;53.78;;;19.92;;
34828;SDS011;21042;47.620;12.188;2022-12-17T05:17:25;69.10;;;21.65;;
34828;SDS011;21042;47.620;12.188;2022-12-17T05:20:11;67.20;;;22.67;;
34828;SDS011;21042;47.620;12.188;2022-12-17T05:23:02;62.45;;;21.75;;
34828;SDS011;21042;47.620;12.188;2022-12-17T05:25:48;69.78;;;22.52;;
34828;SDS011;21042;47.620;12.188;2022-12-17T05:28:34;66.32;;;21.70;;
34828;SDS011;21042;47.620;12.188;2022-12-17T05:31:19;72.07;;;22.92;;
34828;SDS011;21042;47.620;12.188;2022-12-17T05:34:04;69.70;;;22.67;;
34828;SDS011;21042;47.620;12.188;2022-12-17T05:36:50;69.25;;;22.05;;
34828;SDS011;21042;47.620;12.188;2022-12-17T05:39:35;74.78;;;25.17;;
34828;SDS011;21042;47.620;12.188;2022-12-17T05:42:21;70.40;;;24.88;;
34828;SDS011;21042;47.620;12.188;2022-12-17T05:45:06;74.25;;;24.80;;
34828;SDS011;21042;47.620;12.188;2022-12-17T05:47:55;65.95;;;22.48;;
34828;SDS011;21042;47.620;12.188;2022-12-17T05:50:42;79.45;;;26.05;;
34828;SDS011;21042;47.620;12.188;2022-12-17T05:53:27;78.72;;;25.25;;
34828;SDS011;21042;47.620;12.188;2022-12-17T05:56:13;75.35;;;26.05;;
34828;SDS011;21042;47.620;12.188;2022-12-17T05:58:58;80.78;;;25.23;;
34828;SDS011;21042;47.620;12.188;2022-12-17T06:01:44;70.38;;;24.88;;
34828;SDS011;21042;47.620;12.188;2022-12-17T06:04:29;84.50;;;26.08;;
34828;SDS011;21042;47.620;12.188;2022-12-17T06:07:14;78.90;;;26.10;;
34828;SDS011;21042;47.620;12.188;2022-12-17T06:10:00;82.78;;;26.33;;
34828;SDS011;21042;47.620;12.188;2022-12-17T06:12:55;81.10;;;26.27;;
34828;SDS011;21042;47.620;12.188;2022-12-17T06:15:41;83.50;;;26.25;;
34828;SDS011;21042;47.620;12.188;2022-12-17T06:18:26;81.93;;;24.55;;
34828;SDS011;21042;47.620;12.188;2022-12-17T06:21:11;86.15;;;28.33;;
34828;SDS011;21042;47.620;12.188;2022-12-17T06:23:57;74.03;;;24.60;;
34828;SDS011;21042;47.620;12.188;2022-12-17T06:26:42;83.03;;;27.23;;
34828;SDS011;21042;47.620;12.188;2022-12-17T06:29:28;75.45;;;25.10;;
34828;SDS011;21042;47.620;12.188;2022-12-17T06:32:13;89.43;;;26.77;;
34828;SDS011;21042;47.620;12.188;2022-12-17T06:34:58;85.68;;;27.88;;
34828;SDS011;21042;47.620;12.188;2022-12-17T06:37:44;76.30;;;25.63;;
34828;SDS011;21042;47.620;12.188;2022-12-17T06:40:29;79.82;;;26.08;;
34828;SDS011;21042;47.620;12.188;2022-12-17T06:43:15;80.80;;;27.50;;
34828;SDS011;21042;47.620;12.188;2022-12-17T06:46:01;82.72;;;26.58;;
34828;SDS011;21042;47.620;12.188;2022-12-17T06:48:46;79.22;;;25.20;;
34828;SDS011;21042;47.620;12.188;2022-12-17T06:51:32;82.75;;;28.40;;
34828;SDS011;21042;47.620;12.188;2022-12-17T06:54:17;86.38;;;27.52;;
34828;SDS011;21042;47.620;12.188;2022-12-17T06:57:03;87.03;;;28.33;;
34828;SDS011;21042;47.620;12.188;2022-12-17T06:59:48;88.47;;;26.98;;
34828;SDS011;21042;47.620;12.188;2022-12-17T07:02:34;95.10;;;28.65;;
34828;SDS011;21042;47.620;12.188;2022-12-17T07:05:19;95.45;;;31.05;;
34828;SDS011;21042;47.620;12.188;2022-12-17T07:08:05;91.80;;;29.15;;
34828;SDS011;21042;47.620;12.188;2022-12-17T07:10:50;90.38;;;29.00;;
34828;SDS011;21042;47.620;12.188;2022-12-17T07:13:36;97.25;;;31.65;;
34828;SDS011;21042;47.620;12.188;2022-12-17T07:16:21;94.55;;;30.15;;
34828;SDS011;21042;47.620;12.188;2022-12-17T07:19:06;95.80;;;31.00;;
34828;SDS011;21042;47.620;12.188;2022-12-17T07:21:53;90.40;;;29.92;;
34828;SDS011;21042;47.620;12.188;2022-12-17T07:24:39;84.35;;;29.58;;
34828;SDS011;21042;47.620;12.188;2022-12-17T07:27:24;91.30;;;30.63;;
34828;SDS011;21042;47.620;12.188;2022-12-17T07:30:10;90.40;;;29.15;;
34828;SDS011;21042;47.620;12.188;2022-12-17T07:32:57;85.82;;;29.30;;
34828;SDS011;21042;47.620;12.188;2022-12-17T07:35:43;92.50;;;30.88;;
34828;SDS011;21042;47.620;12.188;2022-12-17T07:38:29;99.93;;;31.15;;
34828;SDS011;21042;47.620;12.188;2022-12-17T07:41:15;93.93;;;30.90;;
34828;SDS011;21042;47.620;12.188;2022-12-17T07:44:03;99.18;;;31.00;;
34828;SDS011;21042;47.620;12.188;2022-12-17T07:46:48;97.35;;;31.13;;
34828;SDS011;21042;47.620;12.188;2022-12-17T07:49:34;85.82;;;28.52;;
34828;SDS011;21042;47.620;12.188;2022-12-17T07:52:20;84.40;;;29.65;;
34828;SDS011;21042;47.620;12.188;2022-12-17T07:55:05;81.82;;;28.88;;
34828;SDS011;21042;47.620;12.188;2022-12-17T07:58:02;84.47;;;30.10;;
34828;SDS011;21042;47.620;12.188;2022-12-17T08:00:51;84.20;;;30.05;;
34828;SDS011;21042;47.620;12.188;2022-12-17T08:03:36;73.45;;;27.60;;
34828;SDS011;21042;47.620;12.188;2022-12-17T08:06:21;72.18;;;27.25;;
34828;SDS011;21042;47.620;12.188;2022-12-17T08:09:06;92.97;;;29.50;;
34828;SDS011;21042;47.620;12.188;2022-12-17T08:11:52;83.13;;;29.88;;
34828;SDS011;21042;47.620;12.188;2022-12-17T08:14:38;82.65;;;29.73;;
34828;SDS011;21042;47.620;12.188;2022-12-17T08:17:23;79.22;;;28.63;;
34828;SDS011;21042;47.620;12.188;2022-12-17T08:20:09;71.80;;;28.13;;
34828;SDS011;21042;47.620;12.188;2022-12-17T08:23:01;71.20;;;26.27;;
34828;SDS011;21042;47.620;12.188;2022-12-17T08:25:47;64.05;;;25.55;;
34828;SDS011;21042;47.620;12.188;2022-12-17T08:28:33;64.25;;;25.60;;
34828;SDS011;21042;47.620;12.188;2022-12-17T08:31:19;69.47;;;25.98;;
34828;SDS011;21042;47.620;12.188;2022-12-17T08:34:06;79.70;;;28.23;;
34828;SDS011;21042;47.620;12.188;2022-12-17T08:36:51;65.45;;;25.52;;
34828;SDS011;21042;47.620;12.188;2022-12-17T08:39:37;66.07;;;26.38;;
34828;SDS011;21042;47.620;12.188;2022-12-17T08:42:22;72.13;;;26.75;;
34828;SDS011;21042;47.620;12.188;2022-12-17T08:45:08;71.70;;;27.10;;
34828;SDS011;21042;47.620;12.188;2022-12-17T08:48:00;72.25;;;26.23;;
34828;SDS011;21042;47.620;12.188;2022-12-17T08:50:47;70.80;;;26.45;;
34828;SDS011;21042;47.620;12.188;2022-12-17T08:53:32;69.32;;;27.13;;
34828;SDS011;21042;47.620;12.188;2022-12-17T08:56:17;69.80;;;26.15;;
34828;SDS011;21042;47.620;12.188;2022-12-17T08:59:03;66.07;;;27.05;;
34828;SDS011;21042;47.620;12.188;2022-12-17T09:01:48;76.22;;;27.58;;
34828;SDS011;21042;47.620;12.188;2022-12-17T09:04:34;71.78;;;27.30;;
34828;SDS011;21042;47.620;12.188;2022-12-17T09:07:19;75.53;;;28.08;;
34828;SDS011;21042;47.620;12.188;2022-12-17T09:10:05;69.75;;;26.52;;
34828;SDS011;21042;47.620;12.188;2022-12-17T09:12:50;64.18;;;25.52;;
34828;SDS011;21042;47.620;12.188;2022-12-17T09:15:36;67.57;;;25.55;;
34828;SDS011;21042;47.620;12.188;2022-12-17T09:18:21;65.35;;;25.98;;
34828;SDS011;21042;47.620;12.188;2022-12-17T09:21:07;69.22;;;27.35;;
34828;SDS011;21042;47.620;12.188;2022-12-17T09:23:52;68.03;;;26.83;;
34828;SDS011;21042;47.620;12.188;2022-12-17T09:26:38;72.32;;;25.20;;
34828;SDS011;21042;47.620;12.188;2022-12-17T09:29:23;57.15;;;25.00;;
34828;SDS011;21042;47.620;12.188;2022-12-17T09:32:09;68.72;;;26.25;;
34828;SDS011;21042;47.620;12.188;2022-12-17T09:34:54;61.47;;;24.48;;
34828;SDS011;21042;47.620;12.188;2022-12-17T09:37:39;62.78;;;25.27;;
34828;SDS011;21042;47.620;12.188;2022-12-17T09:40:25;65.68;;;26.13;;
34828;SDS011;21042;47.620;12.188;2022-12-17T09:46:26;58.28;;;23.48;;
34828;SDS011;21042;47.620;12.188;2022-12-17T09:49:17;62.00;;;24.77;;
34828;SDS011;21042;47.620;12.188;2022-12-17T09:52:18;59.78;;;25.13;;
34828;SDS011;21042;47.620;12.188;2022-12-17T09:55:14;60.00;;;25.30;;
34828;SDS011;21042;47.620;12.188;2022-12-17T09:58:09;59.72;;;22.95;;
34828;SDS011;21042;47.620;12.188;2022-12-17T10:01:09;64.45;;;23.58;;
34828;SDS011;21042;47.620;12.188;2022-12-17T10:04:03;64.95;;;24.85;;
34828;SDS011;21042;47.620;12.188;2022-12-17T10:06:51;66.47;;;24.50;;
34828;SDS011;21042;47.620;12.188;2022-12-17T10:09:36;56.67;;;24.33;;
34828;SDS011;21042;47.620;12.188;2022-12-17T10:12:22;60.38;;;23.83;;
34828;SDS011;21042;47.620;12.188;2022-12-17T10:15:11;58.78;;;23.23;;
34828;SDS011;21042;47.620;12.188;2022-12-17T10:18:04;60.15;;;23.15;;
34828;SDS011;21042;47.620;12.188;2022-12-17T10:21:01;57.80;;;23.80;;
34828;SDS011;21042;47.620;12.188;2022-12-17T10:23:49;56.97;;;23.07;;
34828;SDS011;21042;47.620;12.188;2022-12-17T10:26:46;64.28;;;23.23;;
34828;SDS011;21042;47.620;12.188;2022-12-17T10:29:32;58.15;;;22.95;;
34828;SDS011;21042;47.620;12.188;2022-12-17T10:32:20;60.55;;;22.75;;
34828;SDS011;21042;47.620;12.188;2022-12-17T10:35:11;63.22;;;22.40;;
34828;SDS011;21042;47.620;12.188;2022-12-17T10:38:00;57.92;;;22.08;;
34828;SDS011;21042;47.620;12.188;2022-12-17T10:40:53;64.05;;;24.20;;
34828;SDS011;21042;47.620;12.188;2022-12-17T10:43:39;61.17;;;23.27;;
34828;SDS011;21042;47.620;12.188;2022-12-17T10:46:30;59.22;;;21.65;;
34828;SDS011;21042;47.620;12.188;2022-12-17T10:55:19;57.28;;;24.15;;
34828;SDS011;21042;47.620;12.188;2022-12-17T10:58:12;64.22;;;25.55;;
34828;SDS011;21042;47.620;12.188;2022-12-17T11:01:04;59.95;;;24.45;;
34828;SDS011;21042;47.620;12.188;2022-12-17T11:03:54;66.53;;;24.20;;
34828;SDS011;21042;47.620;12.188;2022-12-17T11:06:45;65.43;;;25.35;;
34828;SDS011;21042;47.620;12.188;2022-12-17T11:12:37;53.15;;;22.52;;
34828;SDS011;21042;47.620;12.188;2022-12-17T11:15:42;61.63;;;23.30;;
34828;SDS011;21042;47.620;12.188;2022-12-17T11:21:24;67.50;;;24.40;;
34828;SDS011;21042;47.620;12.188;2022-12-17T11:24:32;73.80;;;25.52;;
34828;SDS011;21042;47.620;12.188;2022-12-17T11:27:42;62.80;;;25.52;;
34828;SDS011;21042;47.620;12.188;2022-12-17T11:30:30;69.38;;;26.48;;
34828;SDS011;21042;47.620;12.188;2022-12-17T11:33:26;62.70;;;24.33;;
34828;SDS011;21042;47.620;12.188;2022-12-17T11:36:29;64.32;;;24.10;;
34828;SDS011;21042;47.620;12.188;2022-12-17T11:39:32;62.78;;;24.27;;
34828;SDS011;21042;47.620;12.188;2022-12-17T11:54:28;69.78;;;25.60;;
34828;SDS011;21042;47.620;12.188;2022-12-17T11:57:31;70.32;;;26.90;;
34828;SDS011;21042;47.620;12.188;2022-12-17T12:00:26;65.97;;;25.48;;
34828;SDS011;21042;47.620;12.188;2022-12-17T12:03:23;72.35;;;28.13;;
34828;SDS011;21042;47.620;12.188;2022-12-17T12:09:54;73.25;;;26.98;;
34828;SDS011;21042;47.620;12.188;2022-12-17T12:12:56;71.07;;;26.60;;
34828;SDS011;21042;47.620;12.188;2022-12-17T12:16:27;72.50;;;25.23;;
34828;SDS011;21042;47.620;12.188;2022-12-17T12:22:45;74.30;;;28.17;;
34828;SDS011;21042;47.620;12.188;2022-12-17T12:25:45;68.20;;;25.02;;
34828;SDS011;21042;47.620;12.188;2022-12-17T12:34:31;69.22;;;26.70;;
34828;SDS011;21042;47.620;12.188;2022-12-17T12:37:20;69.30;;;26.77;;
34828;SDS011;21042;47.620;12.188;2022-12-17T12:46:06;65.40;;;23.65;;
34828;SDS011;21042;47.620;12.188;2022-12-17T12:49:24;61.67;;;25.55;;
34828;SDS011;21042;47.620;12.188;2022-12-17T12:52:33;72.53;;;26.95;;
34828;SDS011;21042;47.620;12.188;2022-12-17T12:55:21;70.30;;;24.60;;
34828;SDS011;21042;47.620;12.188;2022-12-17T13:01:14;63.42;;;23.92;;
34828;SDS011;21042;47.620;12.188;2022-12-17T13:04:01;71.13;;;26.45;;
34828;SDS011;21042;47.620;12.188;2022-12-17T13:06:58;61.72;;;24.58;;
34828;SDS011;21042;47.620;12.188;2022-12-17T13:14:30;61.00;;;24.50;;
34828;SDS011;21042;47.620;12.188;2022-12-17T13:17:06;58.40;;;23.13;;
34828;SDS011;21042;47.620;12.188;2022-12-17T13:24:51;63.53;;;26.17;;
34828;SDS011;21042;47.620;12.188;2022-12-17T13:30:10;51.30;;;18.75;;
34828;SDS011;21042;47.620;12.188;2022-12-17T13:41:00;60.15;;;22.33;;
34828;SDS011;21042;47.620;12.188;2022-12-17T13:43:52;58.42;;;21.70;;
34828;SDS011;21042;47.620;12.188;2022-12-17T13:46:28;52.58;;;21.08;;
34828;SDS011;21042;47.620;12.188;2022-12-17T13:49:16;53.15;;;19.50;;
34828;SDS011;21042;47.620;12.188;2022-12-17T13:51:47;53.38;;;20.08;;
34828;SDS011;21042;47.620;12.188;2022-12-17T13:54:37;58.22;;;21.52;;
34828;SDS011;21042;47.620;12.188;2022-12-17T13:57:07;55.17;;;20.95;;
34828;SDS011;21042;47.620;12.188;2022-12-17T13:59:51;54.67;;;20.85;;
34828;SDS011;21042;47.620;12.188;2022-12-17T14:02:27;55.53;;;21.52;;
34828;SDS011;21042;47.620;12.188;2022-12-17T14:04:59;58.92;;;20.77;;
34828;SDS011;21042;47.620;12.188;2022-12-17T14:07:34;58.47;;;20.05;;
34828;SDS011;21042;47.620;12.188;2022-12-17T14:10:04;56.78;;;21.10;;
34828;SDS011;21042;47.620;12.188;2022-12-17T14:12:39;62.22;;;23.35;;
34828;SDS011;21042;47.620;12.188;2022-12-17T14:15:06;64.57;;;24.85;;
34828;SDS011;21042;47.620;12.188;2022-12-17T14:17:45;58.90;;;23.10;;
34828;SDS011;21042;47.620;12.188;2022-12-17T14:20:24;58.97;;;22.60;;
34828;SDS011;21042;47.620;12.188;2022-12-17T14:22:54;59.15;;;23.20;;
34828;SDS011;21042;47.620;12.188;2022-12-17T14:25:26;62.40;;;22.92;;
34828;SDS011;21042;47.620;12.188;2022-12-17T14:27:58;65.88;;;23.08;;
34828;SDS011;21042;47.620;12.188;2022-12-17T14:35:58;60.17;;;24.15;;
34828;SDS011;21042;47.620;12.188;2022-12-17T14:38:28;61.58;;;23.27;;
34828;SDS011;21042;47.620;12.188;2022-12-17T14:41:11;64.70;;;24.23;;
34828;SDS011;21042;47.620;12.188;2022-12-17T14:43:57;63.35;;;24.17;;
34828;SDS011;21042;47.620;12.188;2022-12-17T14:46:27;64.10;;;24.23;;
34828;SDS011;21042;47.620;12.188;2022-12-17T14:48:56;68.57;;;24.70;;
34828;SDS011;21042;47.620;12.188;2022-12-17T14:54:49;63.72;;;23.73;;
34828;SDS011;21042;47.620;12.188;2022-12-17T14:56:51;54.65;;;22.83;;
34828;SDS011;21042;47.620;12.188;2022-12-17T14:59:35;56.38;;;22.83;;
34828;SDS011;21042;47.620;12.188;2022-12-17T15:04:34;61.58;;;22.55;;
34828;SDS011;21042;47.620;12.188;2022-12-17T15:07:02;67.97;;;23.38;;
34828;SDS011;21042;47.620;12.188;2022-12-17T15:09:34;66.10;;;23.52;;
34828;SDS011;21042;47.620;12.188;2022-12-17T15:12:02;62.00;;;23.77;;
34828;SDS011;21042;47.620;12.188;2022-12-17T15:14:29;75.63;;;25.42;;
34828;SDS011;21042;47.620;12.188;2022-12-17T15:16:55;68.32;;;24.85;;
34828;SDS011;21042;47.620;12.188;2022-12-17T15:19:24;69.15;;;24.20;;
34828;SDS011;21042;47.620;12.188;2022-12-17T15:21:50;45.78;;;17.65;;
34828;SDS011;21042;47.620;12.188;2022-12-17T15:24:18;69.75;;;24.40;;
34828;SDS011;21042;47.620;12.188;2022-12-17T15:26:46;69.30;;;25.00;;
34828;SDS011;21042;47.620;12.188;2022-12-17T15:31:40;61.65;;;23.48;;
34828;SDS011;21042;47.620;12.188;2022-12-17T15:34:08;60.60;;;23.02;;
34828;SDS011;21042;47.620;12.188;2022-12-17T15:36:36;73.65;;;24.52;;
34828;SDS011;21042;47.620;12.188;2022-12-17T15:39:02;78.38;;;23.85;;
34828;SDS011;21042;47.620;12.188;2022-12-17T15:41:32;70.28;;;25.35;;
34828;SDS011;21042;47.620;12.188;2022-12-17T15:44:18;77.82;;;26.40;;
34828;SDS011;21042;47.620;12.188;2022-12-17T15:46:44;51.58;;;18.77;;
34828;SDS011;21042;47.620;12.188;2022-12-17T15:49:12;73.85;;;25.85;;
34828;SDS011;21042;47.620;12.188;2022-12-17T15:51:38;75.75;;;27.85;;
34828;SDS011;21042;47.620;12.188;2022-12-17T15:54:05;74.57;;;26.90;;
34828;SDS011;21042;47.620;12.188;2022-12-17T15:56:32;83.05;;;29.70;;
34828;SDS011;21042;47.620;12.188;2022-12-17T15:58:59;79.30;;;28.40;;
34828;SDS011;21042;47.620;12.188;2022-12-17T16:01:26;77.32;;;28.25;;
34828;SDS011;21042;47.620;12.188;2022-12-17T16:03:53;83.53;;;28.52;;
34828;SDS011;21042;47.620;12.188;2022-12-17T16:06:20;71.25;;;26.75;;
34828;SDS011;21042;47.620;12.188;2022-12-17T16:08:47;81.10;;;28.02;;
34828;SDS011;21042;47.620;12.188;2022-12-17T16:11:14;71.45;;;26.50;;
34828;SDS011;21042;47.620;12.188;2022-12-17T16:16:08;76.65;;;26.77;;
34828;SDS011;21042;47.620;12.188;2022-12-17T16:21:04;72.68;;;26.05;;
34828;SDS011;21042;47.620;12.188;2022-12-17T16:23:33;74.07;;;26.13;;
34828;SDS011;21042;47.620;12.188;2022-12-17T16:26:01;81.75;;;26.58;;
34828;SDS011;21042;47.620;12.188;2022-12-17T16:28:30;66.50;;;25.52;;
34828;SDS011;21042;47.620;12.188;2022-12-17T16:30:58;74.03;;;26.77;;
34828;SDS011;21042;47.620;12.188;2022-12-17T16:33:25;69.35;;;26.33;;
34828;SDS011;21042;47.620;12.188;2022-12-17T16:36:00;68.50;;;24.83;;
34828;SDS011;21042;47.620;12.188;2022-12-17T16:38:27;71.53;;;26.30;;
34828;SDS011;21042;47.620;12.188;2022-12-17T16:40:54;71.53;;;25.95;;
34828;SDS011;21042;47.620;12.188;2022-12-17T16:43:22;74.68;;;25.13;;
34828;SDS011;21042;47.620;12.188;2022-12-17T16:45:50;71.78;;;26.55;;
34828;SDS011;21042;47.620;12.188;2022-12-17T16:48:19;74.18;;;25.58;;
34828;SDS011;21042;47.620;12.188;2022-12-17T16:50:47;73.15;;;26.23;;
34828;SDS011;21042;47.620;12.188;2022-12-17T16:53:16;83.15;;;27.80;;
34828;SDS011;21042;47.620;12.188;2022-12-17T16:55:44;73.63;;;27.90;;
34828;SDS011;21042;47.620;12.188;2022-12-17T16:58:13;78.10;;;26.73;;
34828;SDS011;21042;47.620;12.188;2022-12-17T17:00:40;84.57;;;29.02;;
34828;SDS011;21042;47.620;12.188;2022-12-17T17:03:07;73.32;;;25.73;;
34828;SDS011;21042;47.620;12.188;2022-12-17T17:05:35;80.82;;;27.75;;
34828;SDS011;21042;47.620;12.188;2022-12-17T17:08:04;77.18;;;29.80;;
34828;SDS011;21042;47.620;12.188;2022-12-17T17:12:59;82.68;;;29.67;;
34828;SDS011;21042;47.620;12.188;2022-12-17T17:15:26;67.20;;;21.95;;
34828;SDS011;21042;47.620;12.188;2022-12-17T17:17:53;89.25;;;33.38;;
34828;SDS011;21042;47.620;12.188;2022-12-17T17:20:27;87.20;;;29.98;;
34828;SDS011;21042;47.620;12.188;2022-12-17T17:22:57;78.93;;;28.83;;
34828;SDS011;21042;47.620;12.188;2022-12-17T17:25:24;86.78;;;31.77;;
34828;SDS011;21042;47.620;12.188;2022-12-17T17:28:12;83.80;;;31.23;;